sensor_id;sensor_type;location;lat;lon;timestamp;P1;durP1;ratioP1;P2;durP2;ratioP2
36497;SDS011;22513;51.222;6.480;2022-12-24T00:00:56;28.67;;;5.32;;
36497;SDS011;22513;51.222;6.480;2022-12-24T00:03:22;26.88;;;4.35;;
36497;SDS011;22513;51.222;6.480;2022-12-24T00:05:47;32.42;;;4.63;;
36497;SDS011;22513;51.222;6.480;2022-12-24T00:08:13;16.50;;;3.17;;
36497;SDS011;22513;51.222;6.480;2022-12-24T00:10:39;32.97;;;5.20;;
36497;SDS011;22513;51.222;6.480;2022-12-24T00:13:04;19.05;;;4.50;;
36497;SDS011;22513;51.222;6.480;2022-12-24T00:15:30;28.80;;;5.25;;
36497;SDS011;22513;51.222;6.480;2022-12-24T00:17:55;27.45;;;4.47;;
36497;SDS011;22513;51.222;6.480;2022-12-24T00:20:21;25.42;;;4.35;;
36497;SDS011;22513;51.222;6.480;2022-12-24T00:22:48;27.65;;;4.55;;
36497;SDS011;22513;51.222;6.480;2022-12-24T00:25:14;29.75;;;5.70;;
36497;SDS011;22513;51.222;6.480;2022-12-24T00:27:40;22.90;;;5.05;;
36497;SDS011;22513;51.222;6.480;2022-12-24T00:30:05;36.10;;;6.93;;
36497;SDS011;22513;51.222;6.480;2022-12-24T00:32:32;24.33;;;3.92;;
36497;SDS011;22513;51.222;6.480;2022-12-24T00:34:57;27.23;;;4.20;;
36497;SDS011;22513;51.222;6.480;2022-12-24T00:37:23;29.15;;;5.53;;
36497;SDS011;22513;51.222;6.480;2022-12-24T00:39:48;32.05;;;6.65;;
36497;SDS011;22513;51.222;6.480;2022-12-24T00:42:14;28.67;;;6.43;;
36497;SDS011;22513;51.222;6.480;2022-12-24T00:44:39;24.58;;;4.75;;
36497;SDS011;22513;51.222;6.480;2022-12-24T00:47:05;40.17;;;4.60;;
36497;SDS011;22513;51.222;6.480;2022-12-24T00:49:30;33.15;;;6.20;;
36497;SDS011;22513;51.222;6.480;2022-12-24T00:51:56;37.92;;;6.25;;
36497;SDS011;22513;51.222;6.480;2022-12-24T00:54:21;26.90;;;8.15;;
36497;SDS011;22513;51.222;6.480;2022-12-24T00:56:47;30.73;;;5.80;;
36497;SDS011;22513;51.222;6.480;2022-12-24T00:59:13;28.42;;;4.70;;
36497;SDS011;22513;51.222;6.480;2022-12-24T01:01:38;18.30;;;3.97;;
36497;SDS011;22513;51.222;6.480;2022-12-24T01:04:04;29.88;;;4.60;;
36497;SDS011;22513;51.222;6.480;2022-12-24T01:06:48;28.58;;;4.30;;
36497;SDS011;22513;51.222;6.480;2022-12-24T01:09:13;23.52;;;4.63;;
36497;SDS011;22513;51.222;6.480;2022-12-24T01:11:39;25.70;;;4.40;;
36497;SDS011;22513;51.222;6.480;2022-12-24T01:14:05;30.33;;;5.07;;
36497;SDS011;22513;51.222;6.480;2022-12-24T01:16:30;23.42;;;5.78;;
36497;SDS011;22513;51.222;6.480;2022-12-24T01:18:56;24.75;;;4.38;;
36497;SDS011;22513;51.222;6.480;2022-12-24T01:21:21;32.90;;;6.88;;
36497;SDS011;22513;51.222;6.480;2022-12-24T01:26:16;39.53;;;6.97;;
36497;SDS011;22513;51.222;6.480;2022-12-24T01:28:42;28.60;;;4.97;;
36497;SDS011;22513;51.222;6.480;2022-12-24T01:31:12;32.50;;;4.75;;
36497;SDS011;22513;51.222;6.480;2022-12-24T01:33:38;27.52;;;5.55;;
36497;SDS011;22513;51.222;6.480;2022-12-24T01:36:05;30.00;;;5.50;;
36497;SDS011;22513;51.222;6.480;2022-12-24T01:38:31;28.90;;;5.05;;
36497;SDS011;22513;51.222;6.480;2022-12-24T01:40:56;34.15;;;5.28;;
36497;SDS011;22513;51.222;6.480;2022-12-24T01:43:41;35.60;;;6.20;;
36497;SDS011;22513;51.222;6.480;2022-12-24T01:46:10;24.38;;;4.68;;
36497;SDS011;22513;51.222;6.480;2022-12-24T01:48:42;25.75;;;4.97;;
36497;SDS011;22513;51.222;6.480;2022-12-24T01:56:16;30.65;;;7.50;;
36497;SDS011;22513;51.222;6.480;2022-12-24T01:58:45;34.47;;;4.43;;
36497;SDS011;22513;51.222;6.480;2022-12-24T02:01:15;25.02;;;4.40;;
36497;SDS011;22513;51.222;6.480;2022-12-24T02:03:41;21.33;;;5.18;;
36497;SDS011;22513;51.222;6.480;2022-12-24T02:06:06;29.60;;;4.30;;
36497;SDS011;22513;51.222;6.480;2022-12-24T02:08:34;26.75;;;6.32;;
36497;SDS011;22513;51.222;6.480;2022-12-24T02:13:36;24.00;;;4.82;;
36497;SDS011;22513;51.222;6.480;2022-12-24T02:27:16;31.50;;;5.25;;
36497;SDS011;22513;51.222;6.480;2022-12-24T02:32:31;32.97;;;4.75;;
36497;SDS011;22513;51.222;6.480;2022-12-24T02:35:20;22.00;;;4.65;;
36497;SDS011;22513;51.222;6.480;2022-12-24T02:37:52;22.30;;;4.55;;
36497;SDS011;22513;51.222;6.480;2022-12-24T02:40:26;23.58;;;3.83;;
36497;SDS011;22513;51.222;6.480;2022-12-24T02:42:57;19.58;;;3.92;;
36497;SDS011;22513;51.222;6.480;2022-12-24T02:45:28;32.17;;;4.63;;
36497;SDS011;22513;51.222;6.480;2022-12-24T02:47:55;25.13;;;6.70;;
36497;SDS011;22513;51.222;6.480;2022-12-24T02:50:22;28.45;;;4.82;;
36497;SDS011;22513;51.222;6.480;2022-12-24T02:52:48;24.15;;;4.60;;
36497;SDS011;22513;51.222;6.480;2022-12-24T02:55:16;33.45;;;7.10;;
36497;SDS011;22513;51.222;6.480;2022-12-24T02:58:01;32.00;;;5.93;;
36497;SDS011;22513;51.222;6.480;2022-12-24T03:00:51;28.55;;;5.60;;
36497;SDS011;22513;51.222;6.480;2022-12-24T03:07:09;24.70;;;4.75;;
36497;SDS011;22513;51.222;6.480;2022-12-24T03:12:17;28.83;;;6.13;;
36497;SDS011;22513;51.222;6.480;2022-12-24T03:14:48;22.75;;;4.65;;
36497;SDS011;22513;51.222;6.480;2022-12-24T03:17:14;26.67;;;5.80;;
36497;SDS011;22513;51.222;6.480;2022-12-24T03:19:41;17.55;;;5.85;;
36497;SDS011;22513;51.222;6.480;2022-12-24T03:22:08;20.85;;;4.55;;
36497;SDS011;22513;51.222;6.480;2022-12-24T03:24:36;26.63;;;4.93;;
36497;SDS011;22513;51.222;6.480;2022-12-24T03:27:03;13.68;;;2.92;;
36497;SDS011;22513;51.222;6.480;2022-12-24T03:29:30;17.25;;;4.60;;
36497;SDS011;22513;51.222;6.480;2022-12-24T03:32:00;16.17;;;3.25;;
36497;SDS011;22513;51.222;6.480;2022-12-24T03:34:28;17.35;;;3.65;;
36497;SDS011;22513;51.222;6.480;2022-12-24T03:36:53;23.63;;;5.43;;
36497;SDS011;22513;51.222;6.480;2022-12-24T03:39:20;26.30;;;4.28;;
36497;SDS011;22513;51.222;6.480;2022-12-24T03:41:46;22.77;;;5.32;;
36497;SDS011;22513;51.222;6.480;2022-12-24T03:44:12;18.30;;;3.60;;
36497;SDS011;22513;51.222;6.480;2022-12-24T03:46:37;22.23;;;4.35;;
36497;SDS011;22513;51.222;6.480;2022-12-24T03:49:03;23.38;;;4.32;;
36497;SDS011;22513;51.222;6.480;2022-12-24T03:51:28;19.27;;;4.50;;
36497;SDS011;22513;51.222;6.480;2022-12-24T03:53:56;14.57;;;4.20;;
36497;SDS011;22513;51.222;6.480;2022-12-24T03:56:22;16.63;;;4.50;;
36497;SDS011;22513;51.222;6.480;2022-12-24T03:58:48;24.95;;;3.50;;
36497;SDS011;22513;51.222;6.480;2022-12-24T04:01:14;13.45;;;3.28;;
36497;SDS011;22513;51.222;6.480;2022-12-24T04:03:41;22.00;;;3.50;;
36497;SDS011;22513;51.222;6.480;2022-12-24T04:06:08;9.77;;;3.30;;
36497;SDS011;22513;51.222;6.480;2022-12-24T04:08:35;15.98;;;3.22;;
36497;SDS011;22513;51.222;6.480;2022-12-24T04:11:03;14.45;;;3.65;;
36497;SDS011;22513;51.222;6.480;2022-12-24T04:13:29;24.80;;;4.40;;
36497;SDS011;22513;51.222;6.480;2022-12-24T04:15:58;21.65;;;4.13;;
36497;SDS011;22513;51.222;6.480;2022-12-24T04:18:25;20.50;;;3.97;;
36497;SDS011;22513;51.222;6.480;2022-12-24T04:20:51;18.98;;;4.18;;
36497;SDS011;22513;51.222;6.480;2022-12-24T04:23:17;15.77;;;3.65;;
36497;SDS011;22513;51.222;6.480;2022-12-24T04:25:43;19.13;;;3.30;;
36497;SDS011;22513;51.222;6.480;2022-12-24T04:28:08;14.55;;;4.43;;
36497;SDS011;22513;51.222;6.480;2022-12-24T04:30:34;13.90;;;3.55;;
36497;SDS011;22513;51.222;6.480;2022-12-24T04:33:01;16.05;;;3.50;;
36497;SDS011;22513;51.222;6.480;2022-12-24T04:35:27;20.45;;;5.00;;
36497;SDS011;22513;51.222;6.480;2022-12-24T04:37:52;17.67;;;4.13;;
36497;SDS011;22513;51.222;6.480;2022-12-24T04:40:18;21.77;;;3.58;;
36497;SDS011;22513;51.222;6.480;2022-12-24T04:42:43;21.67;;;4.45;;
36497;SDS011;22513;51.222;6.480;2022-12-24T04:45:09;13.77;;;3.53;;
36497;SDS011;22513;51.222;6.480;2022-12-24T04:47:35;23.30;;;5.55;;
36497;SDS011;22513;51.222;6.480;2022-12-24T04:50:00;16.88;;;3.20;;
36497;SDS011;22513;51.222;6.480;2022-12-24T04:52:26;17.17;;;4.45;;
36497;SDS011;22513;51.222;6.480;2022-12-24T04:54:51;16.25;;;3.85;;
36497;SDS011;22513;51.222;6.480;2022-12-24T04:57:17;22.05;;;4.82;;
36497;SDS011;22513;51.222;6.480;2022-12-24T04:59:43;25.27;;;5.05;;
36497;SDS011;22513;51.222;6.480;2022-12-24T05:02:08;20.45;;;4.07;;
36497;SDS011;22513;51.222;6.480;2022-12-24T05:04:34;13.73;;;3.40;;
36497;SDS011;22513;51.222;6.480;2022-12-24T05:07:00;19.13;;;4.22;;
36497;SDS011;22513;51.222;6.480;2022-12-24T05:09:25;21.75;;;4.65;;
36497;SDS011;22513;51.222;6.480;2022-12-24T05:11:51;23.27;;;4.68;;
36497;SDS011;22513;51.222;6.480;2022-12-24T05:14:16;16.13;;;4.63;;
36497;SDS011;22513;51.222;6.480;2022-12-24T05:16:42;29.23;;;5.35;;
36497;SDS011;22513;51.222;6.480;2022-12-24T05:19:08;20.15;;;3.60;;
36497;SDS011;22513;51.222;6.480;2022-12-24T05:21:33;16.05;;;4.25;;
36497;SDS011;22513;51.222;6.480;2022-12-24T05:26:36;14.80;;;3.53;;
36497;SDS011;22513;51.222;6.480;2022-12-24T05:31:36;18.95;;;3.60;;
36497;SDS011;22513;51.222;6.480;2022-12-24T05:34:04;26.08;;;3.88;;
36497;SDS011;22513;51.222;6.480;2022-12-24T05:36:30;27.48;;;4.40;;
36497;SDS011;22513;51.222;6.480;2022-12-24T05:38:56;18.00;;;4.35;;
36497;SDS011;22513;51.222;6.480;2022-12-24T05:41:22;14.48;;;6.07;;
36497;SDS011;22513;51.222;6.480;2022-12-24T05:43:48;20.35;;;5.03;;
36497;SDS011;22513;51.222;6.480;2022-12-24T05:46:15;16.75;;;4.05;;
36497;SDS011;22513;51.222;6.480;2022-12-24T05:48:42;21.00;;;4.18;;
36497;SDS011;22513;51.222;6.480;2022-12-24T05:51:09;22.88;;;4.85;;
36497;SDS011;22513;51.222;6.480;2022-12-24T05:53:36;17.75;;;4.55;;
36497;SDS011;22513;51.222;6.480;2022-12-24T05:56:06;15.80;;;4.32;;
36497;SDS011;22513;51.222;6.480;2022-12-24T05:58:34;22.67;;;4.97;;
36497;SDS011;22513;51.222;6.480;2022-12-24T06:01:01;20.13;;;4.28;;
36497;SDS011;22513;51.222;6.480;2022-12-24T06:03:28;19.95;;;4.80;;
36497;SDS011;22513;51.222;6.480;2022-12-24T06:06:01;20.65;;;4.57;;
36497;SDS011;22513;51.222;6.480;2022-12-24T06:08:27;17.98;;;4.65;;
36497;SDS011;22513;51.222;6.480;2022-12-24T06:10:54;23.33;;;4.63;;
36497;SDS011;22513;51.222;6.480;2022-12-24T06:13:23;32.47;;;4.95;;
36497;SDS011;22513;51.222;6.480;2022-12-24T06:15:49;19.95;;;4.72;;
36497;SDS011;22513;51.222;6.480;2022-12-24T06:18:17;20.25;;;6.18;;
36497;SDS011;22513;51.222;6.480;2022-12-24T06:20:43;24.20;;;5.10;;
36497;SDS011;22513;51.222;6.480;2022-12-24T06:23:09;28.13;;;7.32;;
36497;SDS011;22513;51.222;6.480;2022-12-24T06:25:34;27.52;;;5.15;;
36497;SDS011;22513;51.222;6.480;2022-12-24T06:28:00;26.88;;;5.78;;
36497;SDS011;22513;51.222;6.480;2022-12-24T06:30:25;24.52;;;7.03;;
36497;SDS011;22513;51.222;6.480;2022-12-24T06:32:51;29.85;;;6.70;;
36497;SDS011;22513;51.222;6.480;2022-12-24T06:35:16;21.80;;;4.85;;
36497;SDS011;22513;51.222;6.480;2022-12-24T06:37:42;23.33;;;5.53;;
36497;SDS011;22513;51.222;6.480;2022-12-24T06:40:08;29.73;;;5.43;;
36497;SDS011;22513;51.222;6.480;2022-12-24T06:42:34;31.73;;;5.88;;
36497;SDS011;22513;51.222;6.480;2022-12-24T06:44:59;28.05;;;5.88;;
36497;SDS011;22513;51.222;6.480;2022-12-24T06:47:26;28.05;;;5.35;;
36497;SDS011;22513;51.222;6.480;2022-12-24T06:49:51;25.55;;;5.55;;
36497;SDS011;22513;51.222;6.480;2022-12-24T06:52:17;24.52;;;4.72;;
36497;SDS011;22513;51.222;6.480;2022-12-24T06:54:42;28.85;;;6.03;;
36497;SDS011;22513;51.222;6.480;2022-12-24T06:57:08;30.15;;;5.15;;
36497;SDS011;22513;51.222;6.480;2022-12-24T06:59:34;26.58;;;5.60;;
36497;SDS011;22513;51.222;6.480;2022-12-24T07:01:59;26.33;;;5.22;;
36497;SDS011;22513;51.222;6.480;2022-12-24T07:04:25;27.27;;;5.32;;
36497;SDS011;22513;51.222;6.480;2022-12-24T07:06:50;24.30;;;5.65;;
36497;SDS011;22513;51.222;6.480;2022-12-24T07:09:16;28.25;;;5.55;;
36497;SDS011;22513;51.222;6.480;2022-12-24T07:11:42;30.30;;;5.28;;
36497;SDS011;22513;51.222;6.480;2022-12-24T07:14:07;30.00;;;5.40;;
36497;SDS011;22513;51.222;6.480;2022-12-24T07:16:33;29.17;;;5.30;;
36497;SDS011;22513;51.222;6.480;2022-12-24T07:18:58;34.67;;;6.03;;
36497;SDS011;22513;51.222;6.480;2022-12-24T07:21:24;35.63;;;6.80;;
36497;SDS011;22513;51.222;6.480;2022-12-24T07:23:49;33.35;;;6.43;;
36497;SDS011;22513;51.222;6.480;2022-12-24T07:26:15;27.90;;;5.82;;
36497;SDS011;22513;51.222;6.480;2022-12-24T07:28:40;30.00;;;6.18;;
36497;SDS011;22513;51.222;6.480;2022-12-24T07:31:06;23.40;;;5.32;;
36497;SDS011;22513;51.222;6.480;2022-12-24T07:33:32;26.85;;;7.30;;
36497;SDS011;22513;51.222;6.480;2022-12-24T07:36:01;31.17;;;5.78;;
36497;SDS011;22513;51.222;6.480;2022-12-24T07:38:31;28.02;;;6.82;;
36497;SDS011;22513;51.222;6.480;2022-12-24T07:40:57;25.98;;;5.65;;
36497;SDS011;22513;51.222;6.480;2022-12-24T07:43:23;30.20;;;5.53;;
36497;SDS011;22513;51.222;6.480;2022-12-24T07:45:51;33.08;;;6.20;;
36497;SDS011;22513;51.222;6.480;2022-12-24T07:48:19;37.15;;;6.28;;
36497;SDS011;22513;51.222;6.480;2022-12-24T07:50:45;32.10;;;6.38;;
36497;SDS011;22513;51.222;6.480;2022-12-24T07:53:12;30.90;;;6.28;;
36497;SDS011;22513;51.222;6.480;2022-12-24T07:55:38;33.60;;;5.53;;
36497;SDS011;22513;51.222;6.480;2022-12-24T07:58:03;33.92;;;6.15;;
36497;SDS011;22513;51.222;6.480;2022-12-24T08:00:29;30.05;;;5.97;;
36497;SDS011;22513;51.222;6.480;2022-12-24T08:02:54;28.60;;;6.07;;
36497;SDS011;22513;51.222;6.480;2022-12-24T08:05:20;35.15;;;7.50;;
36497;SDS011;22513;51.222;6.480;2022-12-24T08:07:45;33.08;;;6.68;;
36497;SDS011;22513;51.222;6.480;2022-12-24T08:10:11;37.08;;;7.13;;
36497;SDS011;22513;51.222;6.480;2022-12-24T08:12:36;30.55;;;6.22;;
36497;SDS011;22513;51.222;6.480;2022-12-24T08:15:02;37.30;;;6.15;;
36497;SDS011;22513;51.222;6.480;2022-12-24T08:17:28;30.55;;;6.70;;
36497;SDS011;22513;51.222;6.480;2022-12-24T08:19:53;26.70;;;6.78;;
36497;SDS011;22513;51.222;6.480;2022-12-24T08:22:19;31.58;;;5.82;;
36497;SDS011;22513;51.222;6.480;2022-12-24T08:24:45;32.72;;;6.53;;
36497;SDS011;22513;51.222;6.480;2022-12-24T08:27:10;34.65;;;7.97;;
36497;SDS011;22513;51.222;6.480;2022-12-24T08:29:36;34.28;;;6.40;;
36497;SDS011;22513;51.222;6.480;2022-12-24T08:32:01;31.55;;;7.05;;
36497;SDS011;22513;51.222;6.480;2022-12-24T08:34:27;27.00;;;5.28;;
36497;SDS011;22513;51.222;6.480;2022-12-24T08:36:53;29.65;;;6.43;;
36497;SDS011;22513;51.222;6.480;2022-12-24T08:39:18;30.13;;;5.80;;
36497;SDS011;22513;51.222;6.480;2022-12-24T08:41:44;30.42;;;5.28;;
36497;SDS011;22513;51.222;6.480;2022-12-24T08:44:09;26.17;;;5.95;;
36497;SDS011;22513;51.222;6.480;2022-12-24T08:46:35;22.27;;;5.63;;
36497;SDS011;22513;51.222;6.480;2022-12-24T08:49:01;28.83;;;5.07;;
36497;SDS011;22513;51.222;6.480;2022-12-24T08:51:26;30.33;;;6.07;;
36497;SDS011;22513;51.222;6.480;2022-12-24T08:53:52;31.75;;;6.95;;
36497;SDS011;22513;51.222;6.480;2022-12-24T08:56:17;29.52;;;4.93;;
36497;SDS011;22513;51.222;6.480;2022-12-24T08:58:43;36.15;;;6.85;;
36497;SDS011;22513;51.222;6.480;2022-12-24T09:01:09;30.20;;;6.80;;
36497;SDS011;22513;51.222;6.480;2022-12-24T09:03:44;38.65;;;6.20;;
36497;SDS011;22513;51.222;6.480;2022-12-24T09:06:10;30.65;;;6.63;;
36497;SDS011;22513;51.222;6.480;2022-12-24T09:08:36;31.38;;;6.55;;
36497;SDS011;22513;51.222;6.480;2022-12-24T09:11:03;38.30;;;6.82;;
36497;SDS011;22513;51.222;6.480;2022-12-24T09:13:34;29.45;;;6.68;;
36497;SDS011;22513;51.222;6.480;2022-12-24T09:16:00;32.03;;;6.03;;
36497;SDS011;22513;51.222;6.480;2022-12-24T09:18:26;25.85;;;7.10;;
36497;SDS011;22513;51.222;6.480;2022-12-24T09:20:57;32.97;;;5.35;;
36497;SDS011;22513;51.222;6.480;2022-12-24T09:23:30;33.15;;;6.32;;
36497;SDS011;22513;51.222;6.480;2022-12-24T09:25:57;28.85;;;5.20;;
36497;SDS011;22513;51.222;6.480;2022-12-24T09:28:23;20.55;;;6.32;;
36497;SDS011;22513;51.222;6.480;2022-12-24T09:30:58;27.77;;;5.10;;
36497;SDS011;22513;51.222;6.480;2022-12-24T09:33:26;38.63;;;6.07;;
36497;SDS011;22513;51.222;6.480;2022-12-24T09:35:53;36.83;;;6.22;;
36497;SDS011;22513;51.222;6.480;2022-12-24T09:38:19;25.33;;;7.07;;
36497;SDS011;22513;51.222;6.480;2022-12-24T09:40:45;34.88;;;6.22;;
36497;SDS011;22513;51.222;6.480;2022-12-24T09:43:20;32.88;;;8.02;;
36497;SDS011;22513;51.222;6.480;2022-12-24T09:48:45;15.85;;;4.22;;
36497;SDS011;22513;51.222;6.480;2022-12-24T09:54:02;21.80;;;5.60;;
36497;SDS011;22513;51.222;6.480;2022-12-24T09:56:33;26.88;;;5.80;;
36497;SDS011;22513;51.222;6.480;2022-12-24T09:59:06;30.17;;;5.55;;
36497;SDS011;22513;51.222;6.480;2022-12-24T10:01:38;32.65;;;5.47;;
36497;SDS011;22513;51.222;6.480;2022-12-24T10:04:07;26.38;;;5.38;;
36497;SDS011;22513;51.222;6.480;2022-12-24T10:11:59;34.15;;;6.18;;
36497;SDS011;22513;51.222;6.480;2022-12-24T10:20:16;29.15;;;6.28;;
36497;SDS011;22513;51.222;6.480;2022-12-24T10:25:27;26.92;;;5.45;;
36497;SDS011;22513;51.222;6.480;2022-12-24T10:28:16;28.60;;;7.28;;
36497;SDS011;22513;51.222;6.480;2022-12-24T10:30:46;32.53;;;5.95;;
36497;SDS011;22513;51.222;6.480;2022-12-24T10:33:23;26.30;;;4.63;;
36497;SDS011;22513;51.222;6.480;2022-12-24T10:35:55;34.22;;;5.45;;
36497;SDS011;22513;51.222;6.480;2022-12-24T10:38:22;17.25;;;4.68;;
36497;SDS011;22513;51.222;6.480;2022-12-24T10:40:51;20.45;;;4.75;;
36497;SDS011;22513;51.222;6.480;2022-12-24T10:43:23;28.73;;;5.82;;
36497;SDS011;22513;51.222;6.480;2022-12-24T10:48:42;30.45;;;6.35;;
36497;SDS011;22513;51.222;6.480;2022-12-24T10:51:59;26.80;;;5.50;;
36497;SDS011;22513;51.222;6.480;2022-12-24T10:54:06;26.98;;;5.25;;
36497;SDS011;22513;51.222;6.480;2022-12-24T10:56:37;28.75;;;5.35;;
36497;SDS011;22513;51.222;6.480;2022-12-24T10:59:05;29.30;;;5.30;;
36497;SDS011;22513;51.222;6.480;2022-12-24T11:01:46;25.17;;;5.78;;
36497;SDS011;22513;51.222;6.480;2022-12-24T11:04:14;25.30;;;6.63;;
36497;SDS011;22513;51.222;6.480;2022-12-24T11:06:50;21.75;;;5.50;;
36497;SDS011;22513;51.222;6.480;2022-12-24T11:09:19;29.80;;;6.53;;
36497;SDS011;22513;51.222;6.480;2022-12-24T11:11:55;27.00;;;6.28;;
36497;SDS011;22513;51.222;6.480;2022-12-24T11:14:23;24.77;;;6.10;;
36497;SDS011;22513;51.222;6.480;2022-12-24T11:16:52;24.95;;;5.35;;
36497;SDS011;22513;51.222;6.480;2022-12-24T11:19:22;26.83;;;5.30;;
36497;SDS011;22513;51.222;6.480;2022-12-24T11:21:57;23.27;;;4.95;;
36497;SDS011;22513;51.222;6.480;2022-12-24T11:24:29;21.08;;;5.93;;
36497;SDS011;22513;51.222;6.480;2022-12-24T11:27:21;27.77;;;6.07;;
36497;SDS011;22513;51.222;6.480;2022-12-24T11:29:48;25.42;;;5.80;;
36497;SDS011;22513;51.222;6.480;2022-12-24T11:32:19;27.02;;;6.32;;
36497;SDS011;22513;51.222;6.480;2022-12-24T11:34:46;17.70;;;4.78;;
36497;SDS011;22513;51.222;6.480;2022-12-24T11:37:22;29.20;;;6.60;;
36497;SDS011;22513;51.222;6.480;2022-12-24T11:39:55;21.55;;;4.90;;
36497;SDS011;22513;51.222;6.480;2022-12-24T11:44:56;28.20;;;6.30;;
36497;SDS011;22513;51.222;6.480;2022-12-24T11:47:30;25.90;;;5.13;;
36497;SDS011;22513;51.222;6.480;2022-12-24T11:53:04;20.10;;;4.82;;
36497;SDS011;22513;51.222;6.480;2022-12-24T11:55:49;23.83;;;5.43;;
36497;SDS011;22513;51.222;6.480;2022-12-24T12:01:03;22.92;;;4.35;;
36497;SDS011;22513;51.222;6.480;2022-12-24T12:06:41;25.27;;;5.28;;
36497;SDS011;22513;51.222;6.480;2022-12-24T12:09:18;23.92;;;5.50;;
36497;SDS011;22513;51.222;6.480;2022-12-24T12:11:47;19.95;;;4.82;;
36497;SDS011;22513;51.222;6.480;2022-12-24T12:14:44;23.33;;;5.18;;
36497;SDS011;22513;51.222;6.480;2022-12-24T12:19:57;24.40;;;5.55;;
36497;SDS011;22513;51.222;6.480;2022-12-24T12:22:28;23.98;;;5.00;;
36497;SDS011;22513;51.222;6.480;2022-12-24T12:25:36;25.00;;;5.32;;
36497;SDS011;22513;51.222;6.480;2022-12-24T12:28:20;24.88;;;4.95;;
36497;SDS011;22513;51.222;6.480;2022-12-24T12:30:54;21.77;;;4.65;;
36497;SDS011;22513;51.222;6.480;2022-12-24T12:33:51;21.42;;;5.70;;
36497;SDS011;22513;51.222;6.480;2022-12-24T12:36:36;17.30;;;3.70;;
36497;SDS011;22513;51.222;6.480;2022-12-24T12:39:08;24.08;;;5.13;;
36497;SDS011;22513;51.222;6.480;2022-12-24T12:51:07;23.63;;;4.50;;
36497;SDS011;22513;51.222;6.480;2022-12-24T13:01:19;18.95;;;4.93;;
36497;SDS011;22513;51.222;6.480;2022-12-24T13:03:53;13.90;;;3.72;;
36497;SDS011;22513;51.222;6.480;2022-12-24T13:11:40;18.70;;;4.63;;
36497;SDS011;22513;51.222;6.480;2022-12-24T13:17:43;14.68;;;3.50;;
36497;SDS011;22513;51.222;6.480;2022-12-24T13:20:20;18.65;;;4.88;;
36497;SDS011;22513;51.222;6.480;2022-12-24T13:22:58;20.08;;;5.32;;
36497;SDS011;22513;51.222;6.480;2022-12-24T13:25:28;17.15;;;4.30;;
36497;SDS011;22513;51.222;6.480;2022-12-24T13:30:46;15.90;;;3.03;;
36497;SDS011;22513;51.222;6.480;2022-12-24T13:49:37;18.23;;;3.92;;
36497;SDS011;22513;51.222;6.480;2022-12-24T13:57:02;17.05;;;4.95;;
36497;SDS011;22513;51.222;6.480;2022-12-24T14:00:22;15.45;;;3.35;;
36497;SDS011;22513;51.222;6.480;2022-12-24T14:05:37;20.75;;;4.45;;
36497;SDS011;22513;51.222;6.480;2022-12-24T14:08:11;19.50;;;3.92;;
36497;SDS011;22513;51.222;6.480;2022-12-24T14:11:01;21.48;;;4.30;;
36497;SDS011;22513;51.222;6.480;2022-12-24T14:21:37;16.75;;;5.03;;
36497;SDS011;22513;51.222;6.480;2022-12-24T14:24:20;23.40;;;5.53;;
36497;SDS011;22513;51.222;6.480;2022-12-24T14:26:51;18.55;;;4.47;;
36497;SDS011;22513;51.222;6.480;2022-12-24T14:29:31;27.52;;;5.80;;
36497;SDS011;22513;51.222;6.480;2022-12-24T14:31:59;23.98;;;5.13;;
36497;SDS011;22513;51.222;6.480;2022-12-24T14:34:28;25.77;;;4.75;;
36497;SDS011;22513;51.222;6.480;2022-12-24T14:36:54;19.92;;;4.38;;
36497;SDS011;22513;51.222;6.480;2022-12-24T14:48:02;27.20;;;6.05;;
36497;SDS011;22513;51.222;6.480;2022-12-24T14:53:27;27.90;;;5.32;;
36497;SDS011;22513;51.222;6.480;2022-12-24T14:56:20;18.25;;;5.50;;
36497;SDS011;22513;51.222;6.480;2022-12-24T14:58:49;33.72;;;5.95;;
36497;SDS011;22513;51.222;6.480;2022-12-24T15:01:25;20.05;;;5.22;;
36497;SDS011;22513;51.222;6.480;2022-12-24T15:06:27;30.23;;;5.20;;
36497;SDS011;22513;51.222;6.480;2022-12-24T15:08:57;23.05;;;6.03;;
36497;SDS011;22513;51.222;6.480;2022-12-24T15:11:23;34.50;;;6.53;;
36497;SDS011;22513;51.222;6.480;2022-12-24T15:13:49;27.70;;;7.63;;
36497;SDS011;22513;51.222;6.480;2022-12-24T15:16:26;32.50;;;7.93;;
36497;SDS011;22513;51.222;6.480;2022-12-24T15:19:05;26.40;;;5.80;;
36497;SDS011;22513;51.222;6.480;2022-12-24T15:21:38;34.00;;;6.97;;
36497;SDS011;22513;51.222;6.480;2022-12-24T15:24:25;24.92;;;6.03;;
36497;SDS011;22513;51.222;6.480;2022-12-24T15:26:54;30.83;;;6.78;;
36497;SDS011;22513;51.222;6.480;2022-12-24T15:29:21;34.17;;;6.40;;
36497;SDS011;22513;51.222;6.480;2022-12-24T15:31:55;40.63;;;8.85;;
36497;SDS011;22513;51.222;6.480;2022-12-24T15:34:29;32.67;;;7.25;;
36497;SDS011;22513;51.222;6.480;2022-12-24T15:39:54;33.60;;;7.70;;
36497;SDS011;22513;51.222;6.480;2022-12-24T15:42:19;37.72;;;9.30;;
36497;SDS011;22513;51.222;6.480;2022-12-24T15:47:25;32.10;;;7.85;;
36497;SDS011;22513;51.222;6.480;2022-12-24T15:50:03;34.88;;;10.75;;
36497;SDS011;22513;51.222;6.480;2022-12-24T15:52:30;38.20;;;10.00;;
36497;SDS011;22513;51.222;6.480;2022-12-24T15:54:56;40.92;;;10.50;;
36497;SDS011;22513;51.222;6.480;2022-12-24T15:57:31;32.95;;;9.00;;
36497;SDS011;22513;51.222;6.480;2022-12-24T15:59:58;34.90;;;10.40;;
36497;SDS011;22513;51.222;6.480;2022-12-24T16:11:06;39.30;;;9.18;;
36497;SDS011;22513;51.222;6.480;2022-12-24T16:13:28;44.70;;;9.57;;
36497;SDS011;22513;51.222;6.480;2022-12-24T16:15:58;35.55;;;11.40;;
36497;SDS011;22513;51.222;6.480;2022-12-24T16:20:59;38.65;;;12.38;;
36497;SDS011;22513;51.222;6.480;2022-12-24T16:23:36;46.88;;;10.75;;
36497;SDS011;22513;51.222;6.480;2022-12-24T16:26:09;30.08;;;9.05;;
36497;SDS011;22513;51.222;6.480;2022-12-24T16:28:34;47.97;;;12.50;;
36497;SDS011;22513;51.222;6.480;2022-12-24T16:31:00;53.58;;;13.93;;
36497;SDS011;22513;51.222;6.480;2022-12-24T16:33:26;35.72;;;12.65;;
36497;SDS011;22513;51.222;6.480;2022-12-24T16:35:53;46.17;;;12.98;;
36497;SDS011;22513;51.222;6.480;2022-12-24T16:38:19;42.35;;;12.98;;
36497;SDS011;22513;51.222;6.480;2022-12-24T16:40:47;60.17;;;13.25;;
36497;SDS011;22513;51.222;6.480;2022-12-24T16:43:13;46.75;;;12.70;;
36497;SDS011;22513;51.222;6.480;2022-12-24T16:46:01;47.40;;;14.05;;
36497;SDS011;22513;51.222;6.480;2022-12-24T16:48:29;41.83;;;12.98;;
36497;SDS011;22513;51.222;6.480;2022-12-24T16:50:55;37.72;;;13.45;;
36497;SDS011;22513;51.222;6.480;2022-12-24T16:53:21;49.35;;;13.65;;
36497;SDS011;22513;51.222;6.480;2022-12-24T16:55:47;44.45;;;11.32;;
36497;SDS011;22513;51.222;6.480;2022-12-24T16:58:16;41.65;;;12.88;;
36497;SDS011;22513;51.222;6.480;2022-12-24T17:00:42;48.85;;;13.18;;
36497;SDS011;22513;51.222;6.480;2022-12-24T17:03:08;48.88;;;12.68;;
36497;SDS011;22513;51.222;6.480;2022-12-24T17:05:41;43.95;;;16.02;;
36497;SDS011;22513;51.222;6.480;2022-12-24T17:08:08;51.28;;;13.40;;
36497;SDS011;22513;51.222;6.480;2022-12-24T17:10:34;53.40;;;14.40;;
36497;SDS011;22513;51.222;6.480;2022-12-24T17:13:05;47.15;;;15.98;;
36497;SDS011;22513;51.222;6.480;2022-12-24T17:15:31;52.95;;;16.00;;
36497;SDS011;22513;51.222;6.480;2022-12-24T17:17:57;51.95;;;15.70;;
36497;SDS011;22513;51.222;6.480;2022-12-24T17:20:22;50.08;;;15.75;;
36497;SDS011;22513;51.222;6.480;2022-12-24T17:22:48;42.00;;;16.20;;
36497;SDS011;22513;51.222;6.480;2022-12-24T17:25:14;46.17;;;16.63;;
36497;SDS011;22513;51.222;6.480;2022-12-24T17:27:40;54.47;;;16.73;;